createdAt,value
2022-11-06T00:09:22.899Z,17.48
2022-11-06T00:19:24.259Z,14.73
2022-11-06T00:29:25.654Z,14.63
2022-11-06T00:39:27.072Z,15.10
2022-11-06T00:49:28.415Z,17.50
2022-11-06T00:59:29.789Z,16.27
2022-11-06T01:09:31.220Z,16.77
2022-11-06T01:19:32.595Z,16.20
2022-11-06T01:29:33.988Z,17.83
2022-11-06T01:39:35.361Z,16.25
2022-11-06T01:49:36.752Z,15.68
2022-11-06T01:59:38.139Z,16.17
2022-11-06T02:09:39.542Z,16.10
2022-11-06T02:19:40.964Z,16.70
2022-11-06T02:29:42.896Z,18.25
2022-11-06T02:39:44.298Z,21.40
2022-11-06T02:49:45.660Z,20.40
2022-11-06T02:59:47.098Z,16.77
2022-11-06T03:09:48.445Z,15.50
2022-11-06T03:19:49.834Z,15.02
2022-11-06T03:29:51.235Z,14.43
2022-11-06T03:39:52.658Z,15.10
2022-11-06T03:49:54.000Z,15.00
2022-11-06T03:59:55.388Z,15.70
2022-11-06T04:10:15.296Z,14.57
2022-11-06T04:20:36.639Z,13.02
2022-11-06T04:30:38.028Z,12.57
2022-11-06T04:40:39.409Z,13.07
2022-11-06T04:50:41.086Z,12.43
2022-11-06T05:00:42.487Z,13.18
2022-11-06T05:10:43.897Z,12.93
2022-11-06T05:20:45.241Z,11.90
2022-11-06T05:30:46.621Z,10.50
2022-11-06T05:40:47.965Z,10.48
2022-11-06T05:50:49.365Z,8.88
2022-11-06T06:00:50.697Z,10.43
2022-11-06T06:10:52.070Z,11.00
2022-11-06T06:20:53.456Z,11.85
2022-11-06T06:31:01.010Z,13.88
2022-11-06T06:41:02.948Z,15.18
2022-11-06T06:51:05.052Z,15.70
2022-11-06T07:01:06.576Z,7.93
2022-11-06T07:11:07.981Z,7.60
2022-11-06T07:21:09.392Z,6.82
2022-11-06T07:31:13.120Z,7.55
2022-11-06T07:41:14.530Z,11.27
2022-11-06T07:51:15.873Z,7.47
2022-11-06T08:01:18.964Z,6.57
2022-11-06T08:11:20.571Z,11.20
2022-11-06T08:21:21.816Z,10.57
2022-11-06T08:31:23.195Z,11.45
2022-11-06T08:41:24.589Z,13.50
2022-11-06T08:51:25.954Z,12.13
2022-11-06T09:01:27.682Z,14.05
2022-11-06T09:11:29.185Z,13.48
2022-11-06T09:21:30.600Z,13.93
2022-11-06T09:31:32.154Z,12.07
2022-11-06T09:41:33.500Z,13.55
2022-11-06T09:51:34.951Z,10.93
2022-11-06T10:01:36.928Z,10.40
2022-11-06T10:11:38.422Z,8.88
2022-11-06T10:21:39.855Z,10.00
2022-11-06T10:31:41.250Z,6.50
2022-11-06T10:41:42.636Z,8.38
2022-11-06T10:51:44.029Z,7.35
2022-11-06T11:01:45.520Z,6.55
2022-11-06T11:11:46.955Z,6.10
2022-11-06T11:21:48.213Z,5.50
2022-11-06T11:31:49.576Z,5.68
2022-11-06T11:41:51.010Z,6.47
2022-11-06T11:51:52.407Z,4.75
2022-11-06T12:01:53.851Z,5.35
2022-11-06T12:11:55.362Z,4.88
2022-11-06T12:21:56.776Z,5.03
2022-11-06T12:31:58.188Z,4.65
2022-11-06T12:41:59.565Z,4.13
2022-11-06T12:52:00.809Z,4.25
2022-11-06T13:02:02.112Z,4.50
2022-11-06T13:12:03.604Z,4.22
2022-11-06T13:22:05.200Z,3.72
2022-11-06T13:32:06.736Z,4.30
2022-11-06T13:42:07.988Z,5.00
2022-11-06T13:52:09.373Z,5.10
2022-11-06T14:02:11.069Z,6.85
2022-11-06T14:12:15.130Z,8.13
2022-11-06T14:22:16.919Z,7.43
2022-11-06T14:32:18.374Z,7.28
2022-11-06T14:42:22.905Z,8.35
2022-11-06T14:52:28.082Z,8.95
2022-11-06T15:02:29.524Z,8.35
2022-11-06T15:12:30.944Z,9.43
2022-11-06T15:22:32.199Z,9.57
2022-11-06T15:32:33.551Z,8.75
2022-11-06T15:42:34.947Z,9.18
2022-11-06T15:52:36.398Z,9.57
2022-11-06T16:02:38.036Z,8.77
2022-11-06T16:12:39.428Z,8.48
2022-11-06T16:22:40.822Z,8.85
2022-11-06T16:32:43.515Z,9.50
2022-11-06T16:42:44.922Z,9.18
2022-11-06T16:52:46.277Z,10.25
2022-11-06T17:02:47.903Z,9.23
2022-11-06T17:12:49.400Z,12.38
2022-11-06T17:22:50.992Z,11.38
2022-11-06T17:32:52.408Z,13.88
2022-11-06T17:42:53.776Z,13.18
2022-11-06T17:52:55.167Z,14.63
2022-11-06T18:03:01.419Z,15.63
2022-11-06T18:13:03.237Z,15.30
2022-11-06T18:23:04.573Z,13.45
2022-11-06T18:33:05.977Z,14.10
2022-11-06T18:43:07.377Z,13.30
2022-11-06T18:53:08.963Z,12.85
2022-11-06T19:03:11.814Z,11.75
2022-11-06T19:13:13.258Z,12.70
2022-11-06T19:23:14.845Z,12.38
2022-11-06T19:33:16.690Z,12.68
2022-11-06T19:43:18.239Z,11.75
2022-11-06T19:53:19.606Z,11.65
2022-11-06T20:03:21.013Z,10.32
2022-11-06T20:13:22.346Z,12.05
2022-11-06T20:23:23.804Z,8.90
2022-11-06T20:33:25.214Z,6.53
2022-11-06T20:43:26.471Z,7.20
2022-11-06T20:53:27.698Z,4.90
2022-11-06T21:03:28.991Z,4.75
2022-11-06T21:13:30.389Z,6.68
2022-11-06T21:23:31.795Z,6.25
2022-11-06T21:33:33.161Z,6.93
2022-11-06T21:43:34.423Z,7.00
2022-11-06T21:53:54.705Z,6.35
2022-11-06T22:03:56.091Z,5.90
2022-11-06T22:13:57.507Z,4.85
2022-11-06T22:23:58.937Z,4.22
2022-11-06T22:34:00.426Z,3.88
2022-11-06T22:44:02.027Z,3.97
2022-11-06T22:54:03.521Z,4.57
2022-11-06T23:04:05.030Z,3.75
2022-11-06T23:14:09.065Z,4.35
2022-11-06T23:24:10.974Z,3.83
2022-11-06T23:34:12.388Z,4.40
2022-11-06T23:44:32.487Z,3.50
2022-11-06T23:54:33.982Z,4.65
